Time;durP1;ratioP1;P1;durP2;ratioP2;P2;SDS_P1;SDS_P2;PMS_P1;PMS_P2;Temp;Humidity;BMP_temperature;BMP_pressure;BME280_temperature;BME280_humidity;BME280_pressure;Samples;Min_cycle;Max_cycle;Signal;HPM_P1;HPM_P2
2022/03/22 00:00:37;;;;;;;;;;;;;;;;;;5096665;28;20258;-31
2022/03/22 00:03:04;;;;;;;;;;;;;;;;;;5096230;28;19989;-30
2022/03/22 00:05:31;;;;;;;;;;;;;;;;;;5096488;28;20296;-35
2022/03/22 00:07:57;;;;;;;;;;;;;;;;;;5096557;28;19912;-30
2022/03/22 00:10:23;;;;;;;;;;;;;;;;;;5096238;28;19919;-30
2022/03/22 00:12:49;;;;;;;;;;;;;;;;;;5096050;28;19923;-32
2022/03/22 00:15:16;;;;;;;;;;;;;;;;;;5096039;28;19912;-31
2022/03/22 00:17:42;;;;;;;;;;;;;;;;;;5096278;28;19919;-31
2022/03/22 00:20:10;;;;;;;;;;;;;;;;;;5078140;28;19912;-33
2022/03/22 00:22:36;;;;;;;;;;;;;;;;;;5095847;28;19918;-33
2022/03/22 00:25:02;;;;;;;;;;;;;;;;;;5095895;28;19999;-30
2022/03/22 00:27:28;;;;;;;;;;;;;;;;;;5095856;28;20242;-32
2022/03/22 00:29:54;;;;;;;;;;;;;;;;;;5095837;28;20003;-31
2022/03/22 00:32:20;;;;;;;;;;;;;;;;;;5095740;28;19960;-31
2022/03/22 00:34:46;;;;;;;;;;;;;;;;;;5095695;28;19912;-31
2022/03/22 00:37:14;;;;;;;;;;;;;;;;;;5096279;28;19912;-32
2022/03/22 00:39:40;;;;;;;;;;;;;;;;;;5095831;28;19916;-31
2022/03/22 00:42:06;;;;;;;;;;;;;;;;;;5095850;28;19912;-32
2022/03/22 00:44:32;;;;;;;;;;;;;;;;;;5096189;28;19955;-31
2022/03/22 00:46:59;;;;;;;;;;;;;;;;;;5095607;28;19912;-35
2022/03/22 00:49:25;;;;;;;;;;;;;;;;;;5095587;28;19911;-31
2022/03/22 00:51:51;;;;;;;;;;;;;;;;;;5095447;28;19927;-32
2022/03/22 00:54:21;;;;;;;;;;;;;;;;;;5095485;28;20330;-32
2022/03/22 00:56:48;;;;;;;;;;;;;;;;;;5095999;28;20307;-30
2022/03/22 01:01:58;;;;;;;;;;;;;;;;;;5095013;28;19923;-30
2022/03/22 01:04:24;;;;;;;;;;;;;;;;;;5095158;28;19920;-33
2022/03/22 01:06:50;;;;;;;;;;;;;;;;;;5095874;28;19987;-30
2022/03/22 01:09:16;;;;;;;;;;;;;;;;;;5095315;28;19908;-32
2022/03/22 01:11:42;;;;;;;;;;;;;;;;;;5095154;28;19912;-32
2022/03/22 01:14:08;;;;;;;;;;;;;;;;;;5095813;28;20327;-35
2022/03/22 01:16:34;;;;;;;;;;;;;;;;;;5095210;28;19969;-31
2022/03/22 01:19:01;;;;;;;;;;;;;;;;;;5095116;28;19943;-31
2022/03/22 01:21:28;;;;;;;;;;;;;;;;;;5095394;28;19919;-32
2022/03/22 01:23:54;;;;;;;;;;;;;;;;;;5095361;28;19912;-30
2022/03/22 01:26:20;;;;;;;;;;;;;;;;;;5095097;28;20361;-31
2022/03/22 01:28:46;;;;;;;;;;;;;;;;;;5095442;28;19908;-31
2022/03/22 01:31:12;;;;;;;;;;;;;;;;;;5095290;28;19973;-32
2022/03/22 01:33:38;;;;;;;;;;;;;;;;;;5095060;28;20364;-30
2022/03/22 01:36:04;;;;;;;;;;;;;;;;;;5077278;28;19912;-34
2022/03/22 01:38:30;;;;;;;;;;;;;;;;;;5094913;28;20362;-31
2022/03/22 01:40:56;;;;;;;;;;;;;;;;;;5094921;28;19923;-31
2022/03/22 01:43:22;;;;;;;;;;;;;;;;;;5094808;28;19909;-37
2022/03/22 01:45:48;;;;;;;;;;;;;;;;;;5095491;28;20239;-31
2022/03/22 01:48:14;;;;;;;;;;;;;;;;;;5094932;28;19908;-31
2022/03/22 01:50:41;;;;;;;;;;;;;;;;;;5095430;28;19912;-33
2022/03/22 01:53:07;;;;;;;;;;;;;;;;;;5094746;28;20339;-32
2022/03/22 01:55:33;;;;;;;;;;;;;;;;;;5095074;28;20003;-34
2022/03/22 01:57:59;;;;;;;;;;;;;;;;;;5094764;28;20297;-32
2022/03/22 02:00:25;;;;;;;;;;;;;;;;;;5095083;28;19978;-31
2022/03/22 02:08:20;;;;;;;;;;;;;;;;;;5094851;28;19965;-34
2022/03/22 02:10:46;;;;;;;;;;;;;;;;;;5094649;28;20338;-31
2022/03/22 02:13:12;;;;;;;;;;;;;;;;;;5094741;28;19908;-32
2022/03/22 02:15:38;;;;;;;;;;;;;;;;;;5098375;28;20359;-32
2022/03/22 02:18:04;;;;;;;;;;;;;;;;;;5098386;28;19912;-34
2022/03/22 02:20:30;;;;;;;;;;;;;;;;;;5098319;28;20365;-34
2022/03/22 02:22:56;;;;;;;;;;;;;;;;;;5080437;28;19957;-31
2022/03/22 02:25:22;;;;;;;;;;;;;;;;;;5098812;28;19956;-32
2022/03/22 02:27:48;;;;;;;;;;;;;;;;;;5098220;28;20348;-31
2022/03/22 02:30:14;;;;;;;;;;;;;;;;;;5098197;28;19912;-32
2022/03/22 02:32:40;;;;;;;;;;;;;;;;;;5098331;28;19912;-31
2022/03/22 02:35:06;;;;;;;;;;;;;;;;;;5098099;28;19908;-33
2022/03/22 02:37:32;;;;;;;;;;;;;;;;;;5098232;28;19912;-32
2022/03/22 02:39:58;;;;;;;;;;;;;;;;;;5098017;28;19919;-31
2022/03/22 02:42:23;;;;;;;;;;;;;;;;;;5098440;28;19912;-32
2022/03/22 02:44:49;;;;;;;;;;;;;;;;;;5097875;28;20419;-32
2022/03/22 02:47:15;;;;;;;;;;;;;;;;;;5098083;28;19908;-30
2022/03/22 02:49:41;;;;;;;;;;;;;;;;;;5097704;28;20385;-32
2022/03/22 02:52:07;;;;;;;;;;;;;;;;;;5097934;28;19912;-32
2022/03/22 02:54:33;;;;;;;;;;;;;;;;;;5079822;28;20365;-32
2022/03/22 02:56:59;;;;;;;;;;;;;;;;;;5079833;28;19966;-32
2022/03/22 02:59:25;;;;;;;;;;;;;;;;;;5097548;28;20022;-33
2022/03/22 03:01:51;;;;;;;;;;;;;;;;;;5097765;28;19918;-31
2022/03/22 03:04:17;;;;;;;;;;;;;;;;;;5097321;28;19999;-32
2022/03/22 03:06:45;;;;;;;;;;;;;;;;;;5097491;28;19919;-31
2022/03/22 03:09:11;;;;;;;;;;;;;;;;;;5097390;28;19958;-32
2022/03/22 03:11:37;;;;;;;;;;;;;;;;;;5097391;28;19912;-32
2022/03/22 03:16:48;;;;;;;;;;;;;;;;;;5097372;28;19961;-32
2022/03/22 03:19:14;;;;;;;;;;;;;;;;;;5097162;28;19916;-31
2022/03/22 03:21:40;;;;;;;;;;;;;;;;;;5097719;28;19912;-31
2022/03/22 03:24:06;;;;;;;;;;;;;;;;;;5096982;28;19912;-31
2022/03/22 03:26:32;;;;;;;;;;;;;;;;;;5097213;28;20007;-35
2022/03/22 03:28:58;;;;;;;;;;;;;;;;;;5097029;28;19912;-31
2022/03/22 03:31:23;;;;;;;;;;;;;;;;;;5096991;28;20361;-31
2022/03/22 03:33:49;;;;;;;;;;;;;;;;;;5096890;28;20003;-32
2022/03/22 03:36:15;;;;;;;;;;;;;;;;;;5079115;28;19973;-31
2022/03/22 03:38:41;;;;;;;;;;;;;;;;;;5096769;28;19924;-31
2022/03/22 03:43:52;;;;;;;;;;;;;;;;;;5097015;28;19919;-33
2022/03/22 03:49:02;;;;;;;;;;;;;;;;;;5096712;28;20065;-32
2022/03/22 03:51:28;;;;;;;;;;;;;;;;;;5096565;28;20343;-32
2022/03/22 03:53:54;;;;;;;;;;;;;;;;;;5096514;28;19939;-31
2022/03/22 03:56:20;;;;;;;;;;;;;;;;;;5097097;28;19919;-31
2022/03/22 03:58:46;;;;;;;;;;;;;;;;;;5096368;28;20342;-31
2022/03/22 04:01:12;;;;;;;;;;;;;;;;;;5096422;28;19934;-31
2022/03/22 04:03:39;;;;;;;;;;;;;;;;;;5096100;28;20397;-30
2022/03/22 04:06:06;;;;;;;;;;;;;;;;;;5096553;28;20355;-31
2022/03/22 04:08:32;;;;;;;;;;;;;;;;;;5078388;28;19965;-32
2022/03/22 04:10:58;;;;;;;;;;;;;;;;;;5096205;28;19909;-30
2022/03/22 04:13:24;;;;;;;;;;;;;;;;;;5096162;28;20286;-31
2022/03/22 04:15:52;;;;;;;;;;;;;;;;;;5078255;28;19997;-31
2022/03/22 04:18:18;;;;;;;;;;;;;;;;;;5078181;28;20347;-31
2022/03/22 04:20:47;;;;;;;;;;;;;;;;;;5096301;28;19952;-31
2022/03/22 04:23:14;;;;;;;;;;;;;;;;;;5095908;28;19995;-31
2022/03/22 04:25:40;;;;;;;;;;;;;;;;;;5095945;28;19919;-39
2022/03/22 04:33:36;;;;;;;;;;;;;;;;;;5095873;28;19919;-30
2022/03/22 04:36:02;;;;;;;;;;;;;;;;;;5095723;28;19923;-31
2022/03/22 04:38:28;;;;;;;;;;;;;;;;;;5077650;28;20030;-31
2022/03/22 04:40:54;;;;;;;;;;;;;;;;;;5077816;28;19923;-32
2022/03/22 04:43:20;;;;;;;;;;;;;;;;;;5096078;28;19923;-31
2022/03/22 04:45:46;;;;;;;;;;;;;;;;;;5095616;28;19917;-31
2022/03/22 04:48:13;;;;;;;;;;;;;;;;;;5077765;28;19946;-32
2022/03/22 04:50:39;;;;;;;;;;;;;;;;;;5095466;28;19994;-32
2022/03/22 04:58:36;;;;;;;;;;;;;;;;;;5053876;28;20011;-32
2022/03/22 05:01:02;;;;;;;;;;;;;;;;;;5095858;28;19958;-31
2022/03/22 05:03:28;;;;;;;;;;;;;;;;;;5095027;28;19959;-30
2022/03/22 05:08:38;;;;;;;;;;;;;;;;;;5095479;28;19955;-33
2022/03/22 05:11:04;;;;;;;;;;;;;;;;;;5077219;28;20333;-35
2022/03/22 05:13:30;;;;;;;;;;;;;;;;;;5095575;28;19995;-33
2022/03/22 05:15:56;;;;;;;;;;;;;;;;;;5095065;28;19947;-32
2022/03/22 05:18:23;;;;;;;;;;;;;;;;;;5095670;28;19916;-31
2022/03/22 05:20:49;;;;;;;;;;;;;;;;;;5095543;28;20239;-37
2022/03/22 05:23:17;;;;;;;;;;;;;;;;;;5095529;28;19908;-33
2022/03/22 05:25:43;;;;;;;;;;;;;;;;;;5095498;28;19912;-32
2022/03/22 05:28:09;;;;;;;;;;;;;;;;;;5095018;28;19908;-31
2022/03/22 05:30:35;;;;;;;;;;;;;;;;;;5095011;28;20057;-32
2022/03/22 05:33:01;;;;;;;;;;;;;;;;;;5094955;28;19912;-31
2022/03/22 05:35:27;;;;;;;;;;;;;;;;;;5095277;28;20351;-32
2022/03/22 05:37:53;;;;;;;;;;;;;;;;;;5094904;28;19908;-33
2022/03/22 05:40:19;;;;;;;;;;;;;;;;;;5095539;28;20003;-32
2022/03/22 05:42:46;;;;;;;;;;;;;;;;;;5095161;28;19923;-33
2022/03/22 05:45:12;;;;;;;;;;;;;;;;;;5077064;28;19912;-32
2022/03/22 05:47:39;;;;;;;;;;;;;;;;;;5095836;28;20003;-32
2022/03/22 05:50:05;;;;;;;;;;;;;;;;;;5098861;28;19916;-35
2022/03/22 05:52:31;;;;;;;;;;;;;;;;;;5098747;28;19916;-33
2022/03/22 05:54:57;;;;;;;;;;;;;;;;;;5098712;28;19987;-31
2022/03/22 05:57:23;;;;;;;;;;;;;;;;;;5098748;28;19908;-32
2022/03/22 05:59:49;;;;;;;;;;;;;;;;;;5098434;28;20258;-32
2022/03/22 06:02:16;;;;;;;;;;;;;;;;;;5098795;28;19908;-32
2022/03/22 06:04:42;;;;;;;;;;;;;;;;;;5098410;28;20270;-33
2022/03/22 06:07:08;;;;;;;;;;;;;;;;;;5098292;28;19918;-31
2022/03/22 06:09:34;;;;;;;;;;;;;;;;;;5098405;28;19923;-32
2022/03/22 06:12:00;;;;;;;;;;;;;;;;;;5098282;28;19908;-31
2022/03/22 06:14:26;;;;;;;;;;;;;;;;;;5080541;28;19965;-31
2022/03/22 06:16:52;;;;;;;;;;;;;;;;;;5098731;28;19908;-32
2022/03/22 06:19:18;;;;;;;;;;;;;;;;;;5080445;28;19920;-33
2022/03/22 06:21:44;;;;;;;;;;;;;;;;;;5098151;28;19978;-32
2022/03/22 06:24:10;;;;;;;;;;;;;;;;;;5098051;28;19959;-33
2022/03/22 06:26:36;;;;;;;;;;;;;;;;;;5098132;28;19923;-32
2022/03/22 06:29:02;;;;;;;;;;;;;;;;;;5098281;28;19990;-33
2022/03/22 06:31:29;;;;;;;;;;;;;;;;;;5098175;28;19909;-32
2022/03/22 06:33:55;;;;;;;;;;;;;;;;;;5098041;28;19913;-31
2022/03/22 06:36:20;;;;;;;;;;;;;;;;;;5080076;28;19916;-33
2022/03/22 06:38:46;;;;;;;;;;;;;;;;;;5098211;28;20007;-31
2022/03/22 06:41:12;;;;;;;;;;;;;;;;;;5098312;28;19916;-32
2022/03/22 06:43:38;;;;;;;;;;;;;;;;;;5097980;28;19934;-35
2022/03/22 06:46:04;;;;;;;;;;;;;;;;;;5080000;28;20391;-33
2022/03/22 06:48:31;;;;;;;;;;;;;;;;;;5098089;28;20009;-33
2022/03/22 06:50:57;;;;;;;;;;;;;;;;;;5079929;28;19943;-32
2022/03/22 06:53:23;;;;;;;;;;;;;;;;;;5097732;28;19912;-31
2022/03/22 06:55:51;;;;;;;;;;;;;;;;;;5097710;28;19916;-32
2022/03/22 06:58:21;;;;;;;;;;;;;;;;;;5097747;28;20255;-33
2022/03/22 07:00:47;;;;;;;;;;;;;;;;;;5096851;28;19939;-32
2022/03/22 07:03:13;;;;;;;;;;;;;;;;;;5097134;28;19925;-34
2022/03/22 07:05:41;;;;;;;;;;;;;;;;;;5097385;28;19973;-31
2022/03/22 07:08:07;;;;;;;;;;;;;;;;;;5097882;28;19923;-30
2022/03/22 07:10:33;;;;;;;;;;;;;;;;;;5097274;28;19912;-33
2022/03/22 07:12:59;;;;;;;;;;;;;;;;;;5097135;28;19969;-31
2022/03/22 07:15:26;;;;;;;;;;;;;;;;;;5097614;28;19912;-32
2022/03/22 07:17:52;;;;;;;;;;;;;;;;;;5097415;28;20239;-35
2022/03/22 07:20:19;;;;;;;;;;;;;;;;;;5097491;28;19936;-32
2022/03/22 07:22:45;;;;;;;;;;;;;;;;;;5097062;28;19999;-34
2022/03/22 07:25:11;;;;;;;;;;;;;;;;;;5097359;28;20334;-32
2022/03/22 07:27:37;;;;;;;;;;;;;;;;;;5097013;28;19957;-33
2022/03/22 07:30:03;;;;;;;;;;;;;;;;;;5096934;28;19912;-32
2022/03/22 07:32:29;;;;;;;;;;;;;;;;;;5096811;28;19915;-32
2022/03/22 07:34:55;;;;;;;;;;;;;;;;;;5096851;28;19916;-31
2022/03/22 07:37:21;;;;;;;;;;;;;;;;;;5097046;28;19916;-32
2022/03/22 07:39:47;;;;;;;;;;;;;;;;;;5096997;28;19916;-32
2022/03/22 07:42:13;;;;;;;;;;;;;;;;;;5096568;28;20238;-33
2022/03/22 07:44:39;;;;;;;;;;;;;;;;;;5079588;28;19912;-32
2022/03/22 07:47:05;;;;;;;;;;;;;;;;;;5096486;28;19923;-33
2022/03/22 07:53:17;;;;;;;;;;;;;;;;;;5096425;28;19918;-35
2022/03/22 07:55:12;;;;;;;;;;;;;;;;;;5078680;28;20335;-32
2022/03/22 07:57:38;;;;;;;;;;;;;;;;;;5078591;28;19923;-32
2022/03/22 08:00:04;;;;;;;;;;;;;;;;;;5078427;28;19920;-31
2022/03/22 08:02:32;;;;;;;;;;;;;;;;;;5096214;28;20347;-32
2022/03/22 08:04:58;;;;;;;;;;;;;;;;;;5055962;28;19921;-31
2022/03/22 08:07:24;;;;;;;;;;;;;;;;;;5055994;28;19913;-31
2022/03/22 08:09:51;;;;;;;;;;;;;;;;;;5056164;28;19963;-31
2022/03/22 08:12:17;;;;;;;;;;;;;;;;;;5055338;28;20318;-34
2022/03/22 08:14:43;;;;;;;;;;;;;;;;;;5056042;28;19955;-33
2022/03/22 08:17:09;;;;;;;;;;;;;;;;;;5055791;28;20007;-32
2022/03/22 08:19:36;;;;;;;;;;;;;;;;;;5055717;28;20324;-31
2022/03/22 08:22:02;;;;;;;;;;;;;;;;;;5055492;28;19916;-33
2022/03/22 08:24:28;;;;;;;;;;;;;;;;;;5055597;28;20054;-32
2022/03/22 08:26:54;;;;;;;;;;;;;;;;;;5055446;28;19970;-34
2022/03/22 08:29:20;;;;;;;;;;;;;;;;;;5055933;28;19909;-33
2022/03/22 08:31:46;;;;;;;;;;;;;;;;;;5055501;28;19913;-33
2022/03/22 08:34:12;;;;;;;;;;;;;;;;;;5055639;28;19908;-36
2022/03/22 08:36:38;;;;;;;;;;;;;;;;;;5055707;28;19996;-34
2022/03/22 08:39:04;;;;;;;;;;;;;;;;;;5055195;28;19923;-32
2022/03/22 08:41:30;;;;;;;;;;;;;;;;;;5055121;28;19917;-32
2022/03/22 08:43:56;;;;;;;;;;;;;;;;;;5055139;28;19959;-33
2022/03/22 08:46:24;;;;;;;;;;;;;;;;;;5055287;28;19916;-34
2022/03/22 08:48:51;;;;;;;;;;;;;;;;;;5055316;28;20008;-34
2022/03/22 08:51:18;;;;;;;;;;;;;;;;;;5055124;28;20256;-33
2022/03/22 08:53:44;;;;;;;;;;;;;;;;;;5054904;28;19923;-32
2022/03/22 08:56:11;;;;;;;;;;;;;;;;;;5055018;28;20012;-32
2022/03/22 08:58:37;;;;;;;;;;;;;;;;;;5054768;28;19912;-32
2022/03/22 09:01:03;;;;;;;;;;;;;;;;;;5054763;28;19999;-32
2022/03/22 09:03:31;;;;;;;;;;;;;;;;;;5070860;28;19997;-33
2022/03/22 09:06:11;;;;;;;;;;;;;;;;;;5095449;28;19912;-32
2022/03/22 09:08:39;;;;;;;;;;;;;;;;;;5094451;28;20213;-31
2022/03/22 09:11:05;;;;;;;;;;;;;;;;;;5095141;28;19962;-37
2022/03/22 09:13:33;;;;;;;;;;;;;;;;;;5095180;28;20316;-37
2022/03/22 09:15:59;;;;;;;;;;;;;;;;;;5095269;28;19912;-32
2022/03/22 09:18:26;;;;;;;;;;;;;;;;;;5095049;28;19927;-34
2022/03/22 09:20:52;;;;;;;;;;;;;;;;;;5095024;28;19943;-32
2022/03/22 09:23:18;;;;;;;;;;;;;;;;;;5098322;28;20291;-33
2022/03/22 09:25:45;;;;;;;;;;;;;;;;;;5101646;28;20253;-31
2022/03/22 09:28:11;;;;;;;;;;;;;;;;;;5101740;28;19912;-33
2022/03/22 09:30:38;;;;;;;;;;;;;;;;;;5102445;28;19958;-32
2022/03/22 09:33:04;;;;;;;;;;;;;;;;;;5102421;28;20061;-31
2022/03/22 09:35:30;;;;;;;;;;;;;;;;;;5101576;28;19912;-33
2022/03/22 09:37:56;;;;;;;;;;;;;;;;;;5101568;28;19965;-34
2022/03/22 09:40:22;;;;;;;;;;;;;;;;;;5101582;28;20016;-32
2022/03/22 09:42:48;;;;;;;;;;;;;;;;;;5083768;28;20057;-32
2022/03/22 09:45:14;;;;;;;;;;;;;;;;;;5102126;28;20003;-32
2022/03/22 09:47:41;;;;;;;;;;;;;;;;;;5101491;28;19911;-33
2022/03/22 09:50:07;;;;;;;;;;;;;;;;;;5101854;28;20228;-32
2022/03/22 09:52:33;;;;;;;;;;;;;;;;;;5101579;28;19908;-32
2022/03/22 09:54:59;;;;;;;;;;;;;;;;;;5101475;28;19913;-35
2022/03/22 09:57:25;;;;;;;;;;;;;;;;;;5083532;28;19916;-31
2022/03/22 09:59:51;;;;;;;;;;;;;;;;;;5101449;28;19919;-34
2022/03/22 10:02:17;;;;;;;;;;;;;;;;;;5101468;28;19915;-31
2022/03/22 10:04:43;;;;;;;;;;;;;;;;;;5101469;28;19955;-34
2022/03/22 10:07:09;;;;;;;;;;;;;;;;;;5102067;28;19948;-32
2022/03/22 10:09:40;;;;;;;;;;;;;;;;;;5083565;28;20251;-31
2022/03/22 10:12:08;;;;;;;;;;;;;;;;;;5101269;28;19934;-33
2022/03/22 10:14:33;;;;;;;;;;;;;;;;;;5101662;28;19912;-33
2022/03/22 10:16:59;;;;;;;;;;;;;;;;;;5101425;28;20388;-32
2022/03/22 10:19:26;;;;;;;;;;;;;;;;;;5101232;28;19916;-31
2022/03/22 10:21:53;;;;;;;;;;;;;;;;;;5083416;28;19908;-31
2022/03/22 10:24:19;;;;;;;;;;;;;;;;;;5101425;28;20011;-33
2022/03/22 10:26:46;;;;;;;;;;;;;;;;;;5083342;28;19943;-32
2022/03/22 10:29:12;;;;;;;;;;;;;;;;;;5101637;28;20296;-34
2022/03/22 10:31:40;;;;;;;;;;;;;;;;;;5101595;28;20255;-33
2022/03/22 10:34:06;;;;;;;;;;;;;;;;;;5099521;28;19919;-34
2022/03/22 10:36:32;;;;;;;;;;;;;;;;;;5097950;28;19912;-34
2022/03/22 10:38:58;;;;;;;;;;;;;;;;;;5097826;28;20295;-31
2022/03/22 10:41:24;;;;;;;;;;;;;;;;;;5097869;28;19939;-33
2022/03/22 10:43:50;;;;;;;;;;;;;;;;;;5097670;28;19981;-32
2022/03/22 10:46:16;;;;;;;;;;;;;;;;;;5098534;28;19968;-32
2022/03/22 10:48:42;;;;;;;;;;;;;;;;;;5097646;28;20025;-34
2022/03/22 10:51:08;;;;;;;;;;;;;;;;;;5097480;28;19924;-33
2022/03/22 10:53:34;;;;;;;;;;;;;;;;;;5097542;28;19912;-35
2022/03/22 10:56:01;;;;;;;;;;;;;;;;;;5097446;28;19965;-34
2022/03/22 10:58:28;;;;;;;;;;;;;;;;;;5097506;28;20009;-33
2022/03/22 11:00:54;;;;;;;;;;;;;;;;;;5097876;28;19912;-31
2022/03/22 11:03:20;;;;;;;;;;;;;;;;;;5097048;28;19934;-33
2022/03/22 11:05:46;;;;;;;;;;;;;;;;;;5097303;28;20305;-30
2022/03/22 11:08:12;;;;;;;;;;;;;;;;;;5079393;28;19966;-34
2022/03/22 11:10:38;;;;;;;;;;;;;;;;;;5097490;28;20294;-33
2022/03/22 11:13:04;;;;;;;;;;;;;;;;;;5097166;28;19908;-32
2022/03/22 11:15:30;;;;;;;;;;;;;;;;;;5097165;28;20008;-33
2022/03/22 11:17:55;;;;;;;;;;;;;;;;;;5097702;28;19955;-31
2022/03/22 11:20:22;;;;;;;;;;;;;;;;;;5097041;28;19996;-33
2022/03/22 11:22:49;;;;;;;;;;;;;;;;;;5096882;28;19961;-32
2022/03/22 11:25:15;;;;;;;;;;;;;;;;;;5097409;28;19912;-33
2022/03/22 11:27:41;;;;;;;;;;;;;;;;;;5079073;28;19919;-32
2022/03/22 11:30:07;;;;;;;;;;;;;;;;;;5096930;28;19958;-40
2022/03/22 11:35:18;;;;;;;;;;;;;;;;;;5096820;28;20058;-31
2022/03/22 11:37:44;;;;;;;;;;;;;;;;;;5096898;28;19908;-33
2022/03/22 11:42:55;;;;;;;;;;;;;;;;;;5096586;28;20258;-33
2022/03/22 11:45:21;;;;;;;;;;;;;;;;;;5096347;28;19916;-32
2022/03/22 11:47:49;;;;;;;;;;;;;;;;;;5096625;28;19908;-32
2022/03/22 11:50:17;;;;;;;;;;;;;;;;;;5096830;28;19916;-32
2022/03/22 11:52:43;;;;;;;;;;;;;;;;;;5096548;28;19998;-33
2022/03/22 11:55:09;;;;;;;;;;;;;;;;;;5096291;28;20071;-32
2022/03/22 11:57:35;;;;;;;;;;;;;;;;;;5096846;28;19916;-32
2022/03/22 12:00:01;;;;;;;;;;;;;;;;;;5096168;28;20384;-31
2022/03/22 12:02:27;;;;;;;;;;;;;;;;;;5096134;28;19908;-32
2022/03/22 12:04:54;;;;;;;;;;;;;;;;;;5078071;28;19920;-31
2022/03/22 12:07:19;;;;;;;;;;;;;;;;;;5096360;28;20259;-35
2022/03/22 12:09:45;;;;;;;;;;;;;;;;;;5096260;28;19908;-31
2022/03/22 12:12:12;;;;;;;;;;;;;;;;;;5096186;28;20350;-33
2022/03/22 12:14:38;;;;;;;;;;;;;;;;;;5095874;28;19923;-30
2022/03/22 12:17:04;;;;;;;;;;;;;;;;;;5095910;28;19939;-32
2022/03/22 12:19:30;;;;;;;;;;;;;;;;;;5095840;28;19922;-32
2022/03/22 12:21:56;;;;;;;;;;;;;;;;;;5077879;28;20322;-32
2022/03/22 12:24:22;;;;;;;;;;;;;;;;;;5095870;28;19908;-32
2022/03/22 12:26:48;;;;;;;;;;;;;;;;;;5095956;28;19908;-32
2022/03/22 12:29:14;;;;;;;;;;;;;;;;;;5095547;28;19912;-32
2022/03/22 12:31:40;;;;;;;;;;;;;;;;;;5077741;28;19908;-33
2022/03/22 12:34:06;;;;;;;;;;;;;;;;;;5095570;28;19915;-31
2022/03/22 12:36:32;;;;;;;;;;;;;;;;;;5077556;28;20003;-33
2022/03/22 12:38:58;;;;;;;;;;;;;;;;;;5095110;28;20028;-34
2022/03/22 12:41:25;;;;;;;;;;;;;;;;;;5095538;28;19912;-32
2022/03/22 12:43:51;;;;;;;;;;;;;;;;;;5095727;28;19922;-33
2022/03/22 12:46:17;;;;;;;;;;;;;;;;;;5095724;28;20318;-34
2022/03/22 12:48:43;;;;;;;;;;;;;;;;;;5095323;28;19916;-31
2022/03/22 12:51:10;;;;;;;;;;;;;;;;;;5095407;28;19912;-31
2022/03/22 12:53:37;;;;;;;;;;;;;;;;;;5095588;28;20220;-32
2022/03/22 12:56:03;;;;;;;;;;;;;;;;;;5096068;28;20303;-31
2022/03/22 12:58:29;;;;;;;;;;;;;;;;;;5094881;28;19959;-32
2022/03/22 13:00:57;;;;;;;;;;;;;;;;;;5095695;28;19908;-35
2022/03/22 13:03:23;;;;;;;;;;;;;;;;;;5095105;28;20256;-31
2022/03/22 13:05:51;;;;;;;;;;;;;;;;;;5095130;28;19912;-32
2022/03/22 13:08:17;;;;;;;;;;;;;;;;;;5095214;28;19923;-34
2022/03/22 13:15:01;;;;;;;;;;;;;;;;;;5095158;28;20255;-32
2022/03/22 13:16:13;;;;;;;;;;;;;;;;;;5095107;28;19924;-34
2022/03/22 13:18:40;;;;;;;;;;;;;;;;;;5094874;28;20347;-32
2022/03/22 13:21:09;;;;;;;;;;;;;;;;;;5094831;28;20060;-34
2022/03/22 13:23:35;;;;;;;;;;;;;;;;;;5095194;28;19912;-32
2022/03/22 13:26:01;;;;;;;;;;;;;;;;;;5095156;28;19916;-31
2022/03/22 13:28:27;;;;;;;;;;;;;;;;;;5095010;28;19915;-32
2022/03/22 13:30:53;;;;;;;;;;;;;;;;;;5077091;28;20433;-34
2022/03/22 13:33:20;;;;;;;;;;;;;;;;;;5095030;28;20259;-32
2022/03/22 13:35:46;;;;;;;;;;;;;;;;;;5095127;28;20364;-33
2022/03/22 13:38:13;;;;;;;;;;;;;;;;;;5095233;28;19916;-33
2022/03/22 13:40:42;;;;;;;;;;;;;;;;;;5094850;28;20414;-32
2022/03/22 13:43:08;;;;;;;;;;;;;;;;;;5095619;28;19998;-35
2022/03/22 13:45:34;;;;;;;;;;;;;;;;;;5094907;28;19919;-32
2022/03/22 13:48:00;;;;;;;;;;;;;;;;;;5094735;28;19998;-32
2022/03/22 13:50:26;;;;;;;;;;;;;;;;;;5094496;28;19912;-32
2022/03/22 13:52:52;;;;;;;;;;;;;;;;;;5094822;28;19916;-32
2022/03/22 13:55:18;;;;;;;;;;;;;;;;;;5094640;28;19912;-31
2022/03/22 13:57:44;;;;;;;;;;;;;;;;;;5077518;28;19919;-34
2022/03/22 14:00:10;;;;;;;;;;;;;;;;;;5094739;28;20032;-34
2022/03/22 14:02:36;;;;;;;;;;;;;;;;;;5094532;28;20360;-36
2022/03/22 14:05:02;;;;;;;;;;;;;;;;;;5094943;28;20311;-36
2022/03/22 14:07:28;;;;;;;;;;;;;;;;;;5094997;28;20228;-32
2022/03/22 14:09:55;;;;;;;;;;;;;;;;;;5095634;28;19918;-33
2022/03/22 14:12:20;;;;;;;;;;;;;;;;;;5098287;28;19999;-31
2022/03/22 14:14:46;;;;;;;;;;;;;;;;;;5098181;28;19947;-33
2022/03/22 14:17:14;;;;;;;;;;;;;;;;;;5098537;28;19915;-33
2022/03/22 14:19:40;;;;;;;;;;;;;;;;;;5098104;28;19973;-33
2022/03/22 14:22:06;;;;;;;;;;;;;;;;;;5098190;28;19912;-32
2022/03/22 14:24:32;;;;;;;;;;;;;;;;;;5098844;28;19955;-31
2022/03/22 14:26:58;;;;;;;;;;;;;;;;;;5098334;28;20403;-32
2022/03/22 14:29:24;;;;;;;;;;;;;;;;;;5097847;28;19923;-37
2022/03/22 14:31:52;;;;;;;;;;;;;;;;;;5097830;28;19998;-34
2022/03/22 14:37:04;;;;;;;;;;;;;;;;;;5098121;28;20294;-33
2022/03/22 14:39:30;;;;;;;;;;;;;;;;;;5097767;28;20390;-33
2022/03/22 14:41:56;;;;;;;;;;;;;;;;;;5097714;28;19912;-34
2022/03/22 14:44:22;;;;;;;;;;;;;;;;;;5097718;28;19955;-34
2022/03/22 14:46:51;;;;;;;;;;;;;;;;;;5097843;28;19977;-32
2022/03/22 14:49:18;;;;;;;;;;;;;;;;;;5097692;28;19912;-32
2022/03/22 14:54:31;;;;;;;;;;;;;;;;;;5097719;28;19972;-32
2022/03/22 14:59:42;;;;;;;;;;;;;;;;;;5097426;28;19977;-31
2022/03/22 15:02:08;;;;;;;;;;;;;;;;;;5097393;28;19916;-35
2022/03/22 15:04:34;;;;;;;;;;;;;;;;;;5097304;28;19991;-31
2022/03/22 15:07:00;;;;;;;;;;;;;;;;;;5079526;28;20004;-32
2022/03/22 15:09:26;;;;;;;;;;;;;;;;;;5097362;28;19990;-31
2022/03/22 15:11:53;;;;;;;;;;;;;;;;;;5097206;28;20041;-32
2022/03/22 15:14:20;;;;;;;;;;;;;;;;;;5080208;28;19952;-32
2022/03/22 15:16:47;;;;;;;;;;;;;;;;;;5097170;28;20006;-33
2022/03/22 15:19:15;;;;;;;;;;;;;;;;;;5098035;28;19973;-32
2022/03/22 15:21:42;;;;;;;;;;;;;;;;;;5096699;28;20254;-32
2022/03/22 15:24:07;;;;;;;;;;;;;;;;;;5096823;28;19912;-36
2022/03/22 15:26:35;;;;;;;;;;;;;;;;;;5096984;28;19931;-37
2022/03/22 15:29:02;;;;;;;;;;;;;;;;;;5096926;28;20007;-32
2022/03/22 15:31:28;;;;;;;;;;;;;;;;;;5096702;28;19916;-33
2022/03/22 15:33:56;;;;;;;;;;;;;;;;;;5096751;28;20012;-33
2022/03/22 15:36:23;;;;;;;;;;;;;;;;;;5096645;28;19912;-32
2022/03/22 15:38:49;;;;;;;;;;;;;;;;;;5078881;28;19919;-34
2022/03/22 15:41:15;;;;;;;;;;;;;;;;;;5097196;28;19924;-34
2022/03/22 15:43:41;;;;;;;;;;;;;;;;;;5096897;28;20255;-34
2022/03/22 15:46:07;;;;;;;;;;;;;;;;;;5096451;28;19912;-31
2022/03/22 15:48:33;;;;;;;;;;;;;;;;;;5096353;28;19920;-33
2022/03/22 15:50:59;;;;;;;;;;;;;;;;;;5078456;28;20369;-33
2022/03/22 15:53:26;;;;;;;;;;;;;;;;;;5096200;28;20007;-31
2022/03/22 15:55:52;;;;;;;;;;;;;;;;;;5096510;28;19915;-32
2022/03/22 15:58:18;;;;;;;;;;;;;;;;;;5096349;28;19957;-32
2022/03/22 16:00:44;;;;;;;;;;;;;;;;;;5096047;28;19912;-31
2022/03/22 16:03:10;;;;;;;;;;;;;;;;;;5095754;28;20001;-31
2022/03/22 16:05:36;;;;;;;;;;;;;;;;;;5095909;28;19912;-31
2022/03/22 16:08:02;;;;;;;;;;;;;;;;;;5095801;28;19908;-34
2022/03/22 16:10:28;;;;;;;;;;;;;;;;;;5096038;28;20384;-32
2022/03/22 16:12:54;;;;;;;;;;;;;;;;;;5077877;28;19912;-31
2022/03/22 16:15:20;;;;;;;;;;;;;;;;;;5096470;28;19996;-30
2022/03/22 16:17:46;;;;;;;;;;;;;;;;;;5096069;28;19919;-32
2022/03/22 16:20:12;;;;;;;;;;;;;;;;;;5096096;28;20304;-32
2022/03/22 16:22:38;;;;;;;;;;;;;;;;;;5095749;28;19913;-32
2022/03/22 16:25:06;;;;;;;;;;;;;;;;;;5096265;28;19912;-32
2022/03/22 16:27:32;;;;;;;;;;;;;;;;;;5095895;28;19916;-32
2022/03/22 16:29:58;;;;;;;;;;;;;;;;;;5095875;28;19908;-32
2022/03/22 16:36:47;;;;;;;;;;;;;;;;;;5095197;28;19996;-31
2022/03/22 16:37:55;;;;;;;;;;;;;;;;;;5095767;28;20381;-33
2022/03/22 16:40:21;;;;;;;;;;;;;;;;;;5077745;28;19916;-34
2022/03/22 16:42:50;;;;;;;;;;;;;;;;;;5095459;28;19988;-31
2022/03/22 16:45:16;;;;;;;;;;;;;;;;;;5095783;28;19908;-33
2022/03/22 16:47:42;;;;;;;;;;;;;;;;;;5096005;28;20363;-31
2022/03/22 16:50:09;;;;;;;;;;;;;;;;;;5077764;28;19961;-35
2022/03/22 16:52:38;;;;;;;;;;;;;;;;;;5095279;28;19948;-32
2022/03/22 16:55:05;;;;;;;;;;;;;;;;;;5095782;28;19954;-32
2022/03/22 16:57:31;;;;;;;;;;;;;;;;;;5095416;28;19985;-37
2022/03/22 16:59:57;;;;;;;;;;;;;;;;;;5095134;28;19920;-33
2022/03/22 17:02:23;;;;;;;;;;;;;;;;;;5095053;28;20327;-31
2022/03/22 17:04:49;;;;;;;;;;;;;;;;;;5095008;28;20007;-33
2022/03/22 17:07:15;;;;;;;;;;;;;;;;;;5094991;28;19908;-34
2022/03/22 17:09:41;;;;;;;;;;;;;;;;;;5095176;28;19916;-32
2022/03/22 17:12:07;;;;;;;;;;;;;;;;;;5095100;28;19908;-32
2022/03/22 17:14:34;;;;;;;;;;;;;;;;;;5095037;28;20050;-36
2022/03/22 17:17:00;;;;;;;;;;;;;;;;;;5095052;28;19915;-33
2022/03/22 17:19:27;;;;;;;;;;;;;;;;;;5095307;28;19916;-37
2022/03/22 17:21:54;;;;;;;;;;;;;;;;;;5095131;28;19923;-34
2022/03/22 17:24:20;;;;;;;;;;;;;;;;;;5095033;28;19908;-32
2022/03/22 17:26:46;;;;;;;;;;;;;;;;;;5077132;28;19931;-35
2022/03/22 17:29:12;;;;;;;;;;;;;;;;;;5094892;28;20059;-33
2022/03/22 17:31:38;;;;;;;;;;;;;;;;;;5094990;28;19916;-35